sensor_id;sensor_type;location;lat;lon;timestamp;pressure;altitude;pressure_sealevel;temperature;humidity
60240;BME280;46102;39.012;-7.064;2023-04-26T00:00:32;98386.31;;;18.68;60.35
60240;BME280;46102;39.012;-7.064;2023-04-26T00:02:34;98398.25;;;18.69;60.59
60240;BME280;46102;39.012;-7.064;2023-04-26T00:04:35;98390.69;;;18.69;60.77
60240;BME280;46102;39.012;-7.064;2023-04-26T00:06:36;98387.81;;;18.62;61.10
60240;BME280;46102;39.012;-7.064;2023-04-26T00:08:37;98391.81;;;18.65;61.37
60240;BME280;46102;39.012;-7.064;2023-04-26T00:10:37;98389.34;;;18.60;61.58
60240;BME280;46102;39.012;-7.064;2023-04-26T00:12:40;98378.09;;;18.49;62.01
60240;BME280;46102;39.012;-7.064;2023-04-26T00:14:40;98383.25;;;18.50;62.48
60240;BME280;46102;39.012;-7.064;2023-04-26T00:16:41;98380.44;;;18.47;62.74
60240;BME280;46102;39.012;-7.064;2023-04-26T00:18:42;98377.94;;;18.38;63.04
60240;BME280;46102;39.012;-7.064;2023-04-26T00:20:44;98371.59;;;18.38;62.81
60240;BME280;46102;39.012;-7.064;2023-04-26T00:22:44;98374.47;;;18.45;62.73
60240;BME280;46102;39.012;-7.064;2023-04-26T00:24:46;98378.69;;;18.35;62.66
60240;BME280;46102;39.012;-7.064;2023-04-26T00:26:46;98375.84;;;18.31;62.73
60240;BME280;46102;39.012;-7.064;2023-04-26T00:28:47;98367.84;;;18.26;62.70
60240;BME280;46102;39.012;-7.064;2023-04-26T00:30:48;98364.25;;;18.26;62.58
60240;BME280;46102;39.012;-7.064;2023-04-26T00:32:50;98373.00;;;18.28;62.47
60240;BME280;46102;39.012;-7.064;2023-04-26T00:34:51;98369.41;;;18.24;62.37
60240;BME280;46102;39.012;-7.064;2023-04-26T00:36:52;98373.59;;;18.14;62.63
60240;BME280;46102;39.012;-7.064;2023-04-26T00:38:52;98363.97;;;18.08;62.67
60240;BME280;46102;39.012;-7.064;2023-04-26T00:40:53;98371.50;;;18.07;62.66
60240;BME280;46102;39.012;-7.064;2023-04-26T00:42:57;98363.97;;;18.08;62.74
60240;BME280;46102;39.012;-7.064;2023-04-26T00:44:58;98365.91;;;18.04;62.90
60240;BME280;46102;39.012;-7.064;2023-04-26T00:46:59;98364.28;;;18.03;62.96
60240;BME280;46102;39.012;-7.064;2023-04-26T00:49:01;98367.81;;;18.00;62.88
60240;BME280;46102;39.012;-7.064;2023-04-26T00:51:03;98363.06;;;18.00;63.15
60240;BME280;46102;39.012;-7.064;2023-04-26T00:53:04;98368.16;;;17.98;63.11
60240;BME280;46102;39.012;-7.064;2023-04-26T00:55:07;98364.97;;;17.96;63.08
60240;BME280;46102;39.012;-7.064;2023-04-26T00:57:09;98360.97;;;17.94;63.07
60240;BME280;46102;39.012;-7.064;2023-04-26T00:59:10;98358.06;;;17.86;63.24
60240;BME280;46102;39.012;-7.064;2023-04-26T01:01:11;98358.06;;;17.86;63.17
60240;BME280;46102;39.012;-7.064;2023-04-26T01:03:12;98357.28;;;17.86;63.09
60240;BME280;46102;39.012;-7.064;2023-04-26T01:05:13;98352.88;;;17.85;63.27
60240;BME280;46102;39.012;-7.064;2023-04-26T01:07:14;98354.50;;;17.86;63.53
60240;BME280;46102;39.012;-7.064;2023-04-26T01:09:16;98357.53;;;17.81;63.40
60240;BME280;46102;39.012;-7.064;2023-04-26T01:11:20;98358.72;;;17.80;63.56
60240;BME280;46102;39.012;-7.064;2023-04-26T01:13:22;98349.59;;;17.79;63.73
60240;BME280;46102;39.012;-7.064;2023-04-26T01:15:23;98345.19;;;17.78;63.43
60240;BME280;46102;39.012;-7.064;2023-04-26T01:17:24;98351.94;;;17.77;63.76
60240;BME280;46102;39.012;-7.064;2023-04-26T01:19:25;98350.31;;;17.76;63.47
60240;BME280;46102;39.012;-7.064;2023-04-26T01:21:26;98349.09;;;17.74;63.51
60240;BME280;46102;39.012;-7.064;2023-04-26T01:23:29;98343.09;;;17.72;63.58
60240;BME280;46102;39.012;-7.064;2023-04-26T01:25:30;98347.06;;;17.71;63.66
60240;BME280;46102;39.012;-7.064;2023-04-26T01:27:31;98347.50;;;17.73;63.58
60240;BME280;46102;39.012;-7.064;2023-04-26T01:29:32;98345.88;;;17.72;63.89
60240;BME280;46102;39.012;-7.064;2023-04-26T01:31:33;98345.88;;;17.72;63.44
60240;BME280;46102;39.012;-7.064;2023-04-26T01:33:34;98343.50;;;17.70;63.56
60240;BME280;46102;39.012;-7.064;2023-04-26T01:35:35;98353.38;;;17.67;63.44
60240;BME280;46102;39.012;-7.064;2023-04-26T01:37:36;98352.09;;;17.65;63.46
60240;BME280;46102;39.012;-7.064;2023-04-26T01:39:36;98350.88;;;17.62;63.64
60240;BME280;46102;39.012;-7.064;2023-04-26T01:41:37;98350.81;;;17.59;63.50
60240;BME280;46102;39.012;-7.064;2023-04-26T01:43:38;98346.38;;;17.54;63.75
60240;BME280;46102;39.012;-7.064;2023-04-26T01:45:39;98343.09;;;17.48;64.06
60240;BME280;46102;39.012;-7.064;2023-04-26T01:47:59;98341.13;;;17.49;64.13
60240;BME280;46102;39.012;-7.064;2023-04-26T01:50:00;98351.41;;;17.48;63.87
60240;BME280;46102;39.012;-7.064;2023-04-26T01:52:01;98339.44;;;17.44;64.12
60240;BME280;46102;39.012;-7.064;2023-04-26T01:54:02;98336.69;;;17.44;64.26
60240;BME280;46102;39.012;-7.064;2023-04-26T01:56:03;98336.19;;;17.39;64.68
60240;BME280;46102;39.012;-7.064;2023-04-26T01:58:04;98340.88;;;17.35;64.86
60240;BME280;46102;39.012;-7.064;2023-04-26T02:00:07;98337.00;;;17.39;64.97
60240;BME280;46102;39.012;-7.064;2023-04-26T02:02:16;98333.56;;;17.26;65.32
60240;BME280;46102;39.012;-7.064;2023-04-26T02:04:17;98337.41;;;17.18;65.25
60240;BME280;46102;39.012;-7.064;2023-04-26T02:06:17;98327.03;;;17.15;65.46
60240;BME280;46102;39.012;-7.064;2023-04-26T02:08:18;98329.00;;;17.15;65.33
60240;BME280;46102;39.012;-7.064;2023-04-26T02:10:19;98334.53;;;17.15;65.53
60240;BME280;46102;39.012;-7.064;2023-04-26T02:12:20;98336.81;;;17.09;65.88
60240;BME280;46102;39.012;-7.064;2023-04-26T02:14:21;98327.53;;;17.01;65.77
60240;BME280;46102;39.012;-7.064;2023-04-26T02:16:22;98329.59;;;17.04;66.27
60240;BME280;46102;39.012;-7.064;2023-04-26T02:18:24;98322.81;;;17.02;66.02
60240;BME280;46102;39.012;-7.064;2023-04-26T02:20:24;98327.91;;;17.00;66.10
60240;BME280;46102;39.012;-7.064;2023-04-26T02:22:26;98317.22;;;16.98;66.29
60240;BME280;46102;39.012;-7.064;2023-04-26T02:24:27;98323.03;;;16.93;66.24
60240;BME280;46102;39.012;-7.064;2023-04-26T02:26:28;98319.00;;;16.91;66.41
60240;BME280;46102;39.012;-7.064;2023-04-26T02:28:29;98314.56;;;16.86;66.75
60240;BME280;46102;39.012;-7.064;2023-04-26T02:30:30;98320.09;;;16.86;66.82
60240;BME280;46102;39.012;-7.064;2023-04-26T02:32:31;98325.22;;;16.84;66.65
60240;BME280;46102;39.012;-7.064;2023-04-26T02:34:32;98315.31;;;16.83;66.83
60240;BME280;46102;39.012;-7.064;2023-04-26T02:36:33;98318.81;;;16.80;66.81
60240;BME280;46102;39.012;-7.064;2023-04-26T02:38:34;98323.44;;;16.76;66.88
60240;BME280;46102;39.012;-7.064;2023-04-26T02:40:37;98316.66;;;16.73;67.13
60240;BME280;46102;39.012;-7.064;2023-04-26T02:42:38;98323.31;;;16.69;67.43
60240;BME280;46102;39.012;-7.064;2023-04-26T02:44:39;98324.81;;;16.66;67.74
60240;BME280;46102;39.012;-7.064;2023-04-26T02:46:40;98316.50;;;16.66;67.74
60240;BME280;46102;39.012;-7.064;2023-04-26T02:48:41;98324.75;;;16.62;68.25
60240;BME280;46102;39.012;-7.064;2023-04-26T02:50:41;98327.41;;;16.59;68.07
60240;BME280;46102;39.012;-7.064;2023-04-26T02:52:43;98329.41;;;16.58;68.08
60240;BME280;46102;39.012;-7.064;2023-04-26T02:54:44;98330.56;;;16.57;68.43
60240;BME280;46102;39.012;-7.064;2023-04-26T02:56:45;98329.75;;;16.57;68.75
60240;BME280;46102;39.012;-7.064;2023-04-26T02:58:46;98326.53;;;16.55;69.15
60240;BME280;46102;39.012;-7.064;2023-04-26T03:00:46;98324.50;;;16.52;69.47
60240;BME280;46102;39.012;-7.064;2023-04-26T03:02:48;98319.31;;;16.50;69.83
60240;BME280;46102;39.012;-7.064;2023-04-26T03:04:49;98320.06;;;16.47;70.11
60240;BME280;46102;39.012;-7.064;2023-04-26T03:06:50;98314.59;;;16.51;70.52
60240;BME280;46102;39.012;-7.064;2023-04-26T03:08:51;98313.91;;;16.38;70.71
60240;BME280;46102;39.012;-7.064;2023-04-26T03:10:52;98302.31;;;16.32;71.08
60240;BME280;46102;39.012;-7.064;2023-04-26T03:12:53;98308.94;;;16.28;71.44
60240;BME280;46102;39.012;-7.064;2023-04-26T03:14:54;98302.16;;;16.25;71.93
60240;BME280;46102;39.012;-7.064;2023-04-26T03:16:57;98305.72;;;16.26;72.06
60240;BME280;46102;39.012;-7.064;2023-04-26T03:18:58;98306.09;;;16.24;72.00
60240;BME280;46102;39.012;-7.064;2023-04-26T03:20:59;98301.72;;;16.23;72.35
60240;BME280;46102;39.012;-7.064;2023-04-26T03:23:00;98300.75;;;16.15;72.26
60240;BME280;46102;39.012;-7.064;2023-04-26T03:25:01;98301.22;;;16.17;72.39
60240;BME280;46102;39.012;-7.064;2023-04-26T03:27:03;98299.97;;;16.15;72.48
60240;BME280;46102;39.012;-7.064;2023-04-26T03:29:05;98297.19;;;16.15;72.35
60240;BME280;46102;39.012;-7.064;2023-04-26T03:31:06;98299.69;;;16.20;72.21
60240;BME280;46102;39.012;-7.064;2023-04-26T03:33:08;98303.69;;;16.22;72.05
60240;BME280;46102;39.012;-7.064;2023-04-26T03:35:09;98300.63;;;16.28;71.75
60240;BME280;46102;39.012;-7.064;2023-04-26T03:37:10;98299.47;;;16.29;71.92
60240;BME280;46102;39.012;-7.064;2023-04-26T03:39:12;98296.38;;;16.30;71.58
60240;BME280;46102;39.012;-7.064;2023-04-26T03:41:13;98293.16;;;16.28;71.56
60240;BME280;46102;39.012;-7.064;2023-04-26T03:43:14;98291.53;;;16.27;71.39
60240;BME280;46102;39.012;-7.064;2023-04-26T03:45:15;98285.56;;;16.25;71.47
60240;BME280;46102;39.012;-7.064;2023-04-26T03:47:16;98285.56;;;16.25;71.45
60240;BME280;46102;39.012;-7.064;2023-04-26T03:49:16;98289.41;;;16.20;71.72
60240;BME280;46102;39.012;-7.064;2023-04-26T03:51:18;98282.63;;;16.18;71.50
60240;BME280;46102;39.012;-7.064;2023-04-26T03:53:19;98281.41;;;16.15;71.71
60240;BME280;46102;39.012;-7.064;2023-04-26T03:55:19;98281.69;;;16.10;71.84
60240;BME280;46102;39.012;-7.064;2023-04-26T03:57:20;98286.75;;;16.08;71.95
60240;BME280;46102;39.012;-7.064;2023-04-26T03:59:21;98286.31;;;16.06;72.14
60240;BME280;46102;39.012;-7.064;2023-04-26T04:01:23;98286.69;;;16.05;72.02
60240;BME280;46102;39.012;-7.064;2023-04-26T04:03:25;98279.16;;;16.05;72.06
60240;BME280;46102;39.012;-7.064;2023-04-26T04:05:26;98280.34;;;16.04;71.85
60240;BME280;46102;39.012;-7.064;2023-04-26T04:07:27;98277.56;;;16.04;71.96
60240;BME280;46102;39.012;-7.064;2023-04-26T04:09:28;98282.31;;;16.03;71.98
60240;BME280;46102;39.012;-7.064;2023-04-26T04:11:29;98268.94;;;16.06;72.07
60240;BME280;46102;39.012;-7.064;2023-04-26T04:13:30;98277.22;;;16.06;72.08
60240;BME280;46102;39.012;-7.064;2023-04-26T04:15:31;98269.63;;;16.02;72.31
60240;BME280;46102;39.012;-7.064;2023-04-26T04:17:32;98277.13;;;16.02;72.38
60240;BME280;46102;39.012;-7.064;2023-04-26T04:19:32;98273.56;;;16.01;72.25
60240;BME280;46102;39.012;-7.064;2023-04-26T04:21:33;98273.91;;;16.00;72.26
60240;BME280;46102;39.012;-7.064;2023-04-26T04:23:34;98279.00;;;15.98;72.37
60240;BME280;46102;39.012;-7.064;2023-04-26T04:25:40;98274.66;;;15.97;72.30
60240;BME280;46102;39.012;-7.064;2023-04-26T04:27:44;98276.63;;;15.96;72.21
60240;BME280;46102;39.012;-7.064;2023-04-26T04:29:45;98275.91;;;15.99;72.26
60240;BME280;46102;39.012;-7.064;2023-04-26T04:31:46;98284.19;;;15.99;72.20
60240;BME280;46102;39.012;-7.064;2023-04-26T04:33:48;98278.66;;;15.99;72.41
60240;BME280;46102;39.012;-7.064;2023-04-26T04:35:49;98281.44;;;15.99;72.20
60240;BME280;46102;39.012;-7.064;2023-04-26T04:37:49;98274.72;;;16.00;71.98
60240;BME280;46102;39.012;-7.064;2023-04-26T04:39:51;98274.38;;;16.02;71.59
60240;BME280;46102;39.012;-7.064;2023-04-26T04:41:52;98279.56;;;16.03;71.34
60240;BME280;46102;39.012;-7.064;2023-04-26T04:43:54;98277.94;;;16.02;71.05
60240;BME280;46102;39.012;-7.064;2023-04-26T04:45:56;98267.31;;;16.05;70.51
60240;BME280;46102;39.012;-7.064;2023-04-26T04:47:58;98271.25;;;16.03;70.12
60240;BME280;46102;39.012;-7.064;2023-04-26T04:50:00;98272.41;;;16.02;69.97
60240;BME280;46102;39.012;-7.064;2023-04-26T04:52:01;98272.78;;;16.01;69.80
60240;BME280;46102;39.012;-7.064;2023-04-26T04:56:10;98275.44;;;15.97;69.62
60240;BME280;46102;39.012;-7.064;2023-04-26T04:58:11;98276.25;;;15.98;69.71
60240;BME280;46102;39.012;-7.064;2023-04-26T05:00:14;98274.28;;;15.98;69.52
60240;BME280;46102;39.012;-7.064;2023-04-26T05:02:21;98277.88;;;15.99;69.46
60240;BME280;46102;39.012;-7.064;2023-04-26T05:04:22;98277.03;;;15.98;69.37
60240;BME280;46102;39.012;-7.064;2023-04-26T05:06:22;98274.22;;;15.95;69.31
60240;BME280;46102;39.012;-7.064;2023-04-26T05:08:23;98270.19;;;15.92;69.49
60240;BME280;46102;39.012;-7.064;2023-04-26T05:10:24;98265.00;;;15.91;69.69
60240;BME280;46102;39.012;-7.064;2023-04-26T05:12:27;98271.63;;;15.86;69.84
60240;BME280;46102;39.012;-7.064;2023-04-26T05:14:28;98265.56;;;15.80;69.64
60240;BME280;46102;39.012;-7.064;2023-04-26T05:16:29;98270.56;;;15.75;70.07
60240;BME280;46102;39.012;-7.064;2023-04-26T05:18:31;98277.16;;;15.70;70.15
60240;BME280;46102;39.012;-7.064;2023-04-26T05:20:33;98277.78;;;15.64;70.38
60240;BME280;46102;39.012;-7.064;2023-04-26T05:22:34;98281.25;;;15.60;70.54
60240;BME280;46102;39.012;-7.064;2023-04-26T05:24:36;98289.00;;;15.55;70.59
60240;BME280;46102;39.012;-7.064;2023-04-26T05:26:38;98284.53;;;15.50;70.78
60240;BME280;46102;39.012;-7.064;2023-04-26T05:28:54;98292.31;;;15.45;71.46
60240;BME280;46102;39.012;-7.064;2023-04-26T05:30:55;98295.50;;;15.47;71.60
60240;BME280;46102;39.012;-7.064;2023-04-26T05:33:06;98296.31;;;15.47;71.36
60240;BME280;46102;39.012;-7.064;2023-04-26T05:35:10;98294.81;;;15.50;71.32
60240;BME280;46102;39.012;-7.064;2023-04-26T05:37:11;98296.06;;;15.52;70.85
60240;BME280;46102;39.012;-7.064;2023-04-26T05:39:12;98300.50;;;15.57;70.67
60240;BME280;46102;39.012;-7.064;2023-04-26T05:41:12;98302.56;;;15.60;70.62
60240;BME280;46102;39.012;-7.064;2023-04-26T05:43:13;98303.91;;;15.66;70.41
60240;BME280;46102;39.012;-7.064;2023-04-26T05:45:15;98298.81;;;15.68;70.01
60240;BME280;46102;39.012;-7.064;2023-04-26T05:47:15;98303.19;;;15.69;69.95
60240;BME280;46102;39.012;-7.064;2023-04-26T05:49:19;98308.69;;;15.69;70.15
60240;BME280;46102;39.012;-7.064;2023-04-26T05:51:20;98307.56;;;15.70;69.97
60240;BME280;46102;39.012;-7.064;2023-04-26T05:53:21;98304.69;;;15.67;70.09
60240;BME280;46102;39.012;-7.064;2023-04-26T05:55:22;98303.91;;;15.66;70.29
60240;BME280;46102;39.012;-7.064;2023-04-26T05:57:23;98303.19;;;15.69;70.25
60240;BME280;46102;39.012;-7.064;2023-04-26T05:59:24;98308.84;;;15.73;70.21
60240;BME280;46102;39.012;-7.064;2023-04-26T06:01:25;98306.97;;;15.77;70.23
60240;BME280;46102;39.012;-7.064;2023-04-26T06:03:25;98314.91;;;15.78;70.18
60240;BME280;46102;39.012;-7.064;2023-04-26T06:05:27;98315.72;;;15.79;70.27
60240;BME280;46102;39.012;-7.064;2023-04-26T06:07:28;98325.25;;;15.81;70.09
60240;BME280;46102;39.012;-7.064;2023-04-26T06:09:32;98321.75;;;15.85;70.16
60240;BME280;46102;39.012;-7.064;2023-04-26T06:11:33;98325.88;;;15.91;69.93
60240;BME280;46102;39.012;-7.064;2023-04-26T06:13:34;98330.44;;;15.99;69.58
60240;BME280;46102;39.012;-7.064;2023-04-26T06:15:35;98323.09;;;16.07;69.33
60240;BME280;46102;39.012;-7.064;2023-04-26T06:17:36;98331.19;;;16.15;69.23
60240;BME280;46102;39.012;-7.064;2023-04-26T06:19:36;98319.84;;;16.20;68.85
60240;BME280;46102;39.012;-7.064;2023-04-26T06:21:37;98325.19;;;16.29;68.68
60240;BME280;46102;39.012;-7.064;2023-04-26T06:23:38;98331.31;;;16.38;68.43
60240;BME280;46102;39.012;-7.064;2023-04-26T06:25:39;98327.19;;;16.48;68.09
60240;BME280;46102;39.012;-7.064;2023-04-26T06:27:44;98323.34;;;16.53;67.96
60240;BME280;46102;39.012;-7.064;2023-04-26T06:29:45;98325.19;;;16.64;67.49
60240;BME280;46102;39.012;-7.064;2023-04-26T06:31:46;98332.56;;;16.76;67.07
60240;BME280;46102;39.012;-7.064;2023-04-26T06:33:48;98331.28;;;16.90;66.64
60240;BME280;46102;39.012;-7.064;2023-04-26T06:35:49;98338.19;;;16.99;65.94
60240;BME280;46102;39.012;-7.064;2023-04-26T06:37:50;98334.41;;;17.08;65.46
60240;BME280;46102;39.012;-7.064;2023-04-26T06:39:51;98342.13;;;17.18;64.82
60240;BME280;46102;39.012;-7.064;2023-04-26T06:41:54;98347.50;;;17.30;64.40
60240;BME280;46102;39.012;-7.064;2023-04-26T06:44:03;98337.00;;;17.39;62.96
60240;BME280;46102;39.012;-7.064;2023-04-26T06:46:05;98343.19;;;17.52;62.91
60240;BME280;46102;39.012;-7.064;2023-04-26T06:48:06;98346.63;;;17.68;62.01
60240;BME280;46102;39.012;-7.064;2023-04-26T06:50:08;98342.22;;;17.87;61.25
60240;BME280;46102;39.012;-7.064;2023-04-26T06:52:09;98351.94;;;18.00;60.84
60240;BME280;46102;39.012;-7.064;2023-04-26T06:54:11;98354.09;;;18.10;60.07
60240;BME280;46102;39.012;-7.064;2023-04-26T06:56:12;98350.69;;;18.21;59.85
60240;BME280;46102;39.012;-7.064;2023-04-26T06:58:12;98352.41;;;18.29;59.67
60240;BME280;46102;39.012;-7.064;2023-04-26T07:00:13;98354.94;;;18.38;59.62
60240;BME280;46102;39.012;-7.064;2023-04-26T07:02:14;98363.00;;;18.46;59.48
60240;BME280;46102;39.012;-7.064;2023-04-26T07:04:15;98363.47;;;18.52;59.59
60240;BME280;46102;39.012;-7.064;2023-04-26T07:06:17;98360.84;;;18.63;59.66
60240;BME280;46102;39.012;-7.064;2023-04-26T07:08:18;98355.81;;;18.72;59.46
60240;BME280;46102;39.012;-7.064;2023-04-26T07:10:19;98351.66;;;18.89;59.38
60240;BME280;46102;39.012;-7.064;2023-04-26T07:12:20;98355.06;;;19.05;59.17
60240;BME280;46102;39.012;-7.064;2023-04-26T07:14:22;98349.72;;;19.23;58.03
60240;BME280;46102;39.012;-7.064;2023-04-26T07:16:23;98348.66;;;19.35;57.80
60240;BME280;46102;39.012;-7.064;2023-04-26T07:18:24;98351.16;;;19.44;57.65
60240;BME280;46102;39.012;-7.064;2023-04-26T07:20:25;98352.44;;;19.53;57.35
60240;BME280;46102;39.012;-7.064;2023-04-26T07:22:26;98358.84;;;19.58;57.36
60240;BME280;46102;39.012;-7.064;2023-04-26T07:24:27;98360.56;;;19.69;57.56
60240;BME280;46102;39.012;-7.064;2023-04-26T07:26:28;98357.63;;;19.96;56.86
60240;BME280;46102;39.012;-7.064;2023-04-26T07:28:32;98353.47;;;20.24;56.20
60240;BME280;46102;39.012;-7.064;2023-04-26T07:30:33;98356.03;;;20.50;54.61
60240;BME280;46102;39.012;-7.064;2023-04-26T07:32:33;98355.41;;;20.68;54.34
60240;BME280;46102;39.012;-7.064;2023-04-26T07:34:34;98363.81;;;20.78;53.43
60240;BME280;46102;39.012;-7.064;2023-04-26T07:36:35;98359.09;;;20.90;53.33
60240;BME280;46102;39.012;-7.064;2023-04-26T07:38:36;98363.53;;;21.02;52.78
60240;BME280;46102;39.012;-7.064;2023-04-26T07:40:37;98357.22;;;21.23;52.06
60240;BME280;46102;39.012;-7.064;2023-04-26T07:42:38;98357.31;;;21.40;50.99
60240;BME280;46102;39.012;-7.064;2023-04-26T07:44:38;98367.34;;;21.67;50.58
60240;BME280;46102;39.012;-7.064;2023-04-26T07:46:39;98364.97;;;21.90;48.64
60240;BME280;46102;39.012;-7.064;2023-04-26T07:48:40;98372.97;;;22.10;47.98
60240;BME280;46102;39.012;-7.064;2023-04-26T07:50:41;98368.22;;;22.28;47.17
60240;BME280;46102;39.012;-7.064;2023-04-26T07:52:42;98365.78;;;22.44;45.91
60240;BME280;46102;39.012;-7.064;2023-04-26T07:54:44;98371.75;;;22.54;45.10
60240;BME280;46102;39.012;-7.064;2023-04-26T07:56:45;98367.38;;;22.63;45.43
60240;BME280;46102;39.012;-7.064;2023-04-26T07:58:46;98371.75;;;22.75;45.14
60240;BME280;46102;39.012;-7.064;2023-04-26T08:00:47;98372.53;;;22.79;44.77
60240;BME280;46102;39.012;-7.064;2023-04-26T08:02:48;98374.53;;;22.79;44.18
60240;BME280;46102;39.012;-7.064;2023-04-26T08:04:50;98377.34;;;22.79;44.35
60240;BME280;46102;39.012;-7.064;2023-04-26T08:06:51;98379.28;;;22.89;43.63
60240;BME280;46102;39.012;-7.064;2023-04-26T08:08:52;98377.25;;;23.07;43.67
60240;BME280;46102;39.012;-7.064;2023-04-26T08:10:53;98360.78;;;23.31;43.49
60240;BME280;46102;39.012;-7.064;2023-04-26T08:12:55;98370.22;;;23.59;43.15
60240;BME280;46102;39.012;-7.064;2023-04-26T08:14:58;98368.53;;;23.79;42.85
60240;BME280;46102;39.012;-7.064;2023-04-26T08:16:59;98363.13;;;24.06;42.16
60240;BME280;46102;39.012;-7.064;2023-04-26T08:19:01;98360.88;;;24.36;41.17
60240;BME280;46102;39.012;-7.064;2023-04-26T08:21:02;98363.91;;;24.59;40.71
60240;BME280;46102;39.012;-7.064;2023-04-26T08:23:03;98357.72;;;24.75;39.82
60240;BME280;46102;39.012;-7.064;2023-04-26T08:25:04;98357.09;;;24.94;39.93
60240;BME280;46102;39.012;-7.064;2023-04-26T08:27:05;98361.66;;;25.16;39.78
60240;BME280;46102;39.012;-7.064;2023-04-26T08:29:06;98353.56;;;25.25;38.69
60240;BME280;46102;39.012;-7.064;2023-04-26T08:31:07;98354.31;;;25.29;37.04
60240;BME280;46102;39.012;-7.064;2023-04-26T08:33:09;98351.06;;;25.30;36.71
60240;BME280;46102;39.012;-7.064;2023-04-26T08:35:10;98348.91;;;25.42;37.20
60240;BME280;46102;39.012;-7.064;2023-04-26T08:37:11;98355.22;;;25.49;36.88
60240;BME280;46102;39.012;-7.064;2023-04-26T08:39:12;98347.00;;;25.62;36.82
60240;BME280;46102;39.012;-7.064;2023-04-26T08:41:13;98351.16;;;25.81;36.84
60240;BME280;46102;39.012;-7.064;2023-04-26T08:43:14;98351.28;;;25.74;37.40
60240;BME280;46102;39.012;-7.064;2023-04-26T08:45:17;98343.25;;;25.45;37.28
60240;BME280;46102;39.012;-7.064;2023-04-26T08:47:28;98344.00;;;25.19;37.42
60240;BME280;46102;39.012;-7.064;2023-04-26T08:51:35;98339.47;;;24.94;38.45
60240;BME280;46102;39.012;-7.064;2023-04-26T08:53:37;98346.13;;;25.07;38.60
60240;BME280;46102;39.012;-7.064;2023-04-26T08:55:38;98350.75;;;25.25;38.06
60240;BME280;46102;39.012;-7.064;2023-04-26T08:57:41;98346.72;;;25.26;37.14
60240;BME280;46102;39.012;-7.064;2023-04-26T08:59:43;98343.22;;;25.14;36.80
60240;BME280;46102;39.012;-7.064;2023-04-26T09:01:44;98336.38;;;25.19;36.81
60240;BME280;46102;39.012;-7.064;2023-04-26T09:03:45;98343.31;;;25.07;36.23
60240;BME280;46102;39.012;-7.064;2023-04-26T09:05:47;98348.44;;;25.12;36.01
60240;BME280;46102;39.012;-7.064;2023-04-26T09:07:49;98339.47;;;25.28;36.08
60240;BME280;46102;39.012;-7.064;2023-04-26T09:09:52;98351.94;;;25.54;35.75
60240;BME280;46102;39.012;-7.064;2023-04-26T09:11:56;98357.25;;;25.76;34.16
60240;BME280;46102;39.012;-7.064;2023-04-26T09:13:57;98348.94;;;25.96;34.42
60240;BME280;46102;39.012;-7.064;2023-04-26T09:15:57;98351.28;;;26.01;34.51
60240;BME280;46102;39.012;-7.064;2023-04-26T09:18:20;98346.03;;;26.27;34.62
60240;BME280;46102;39.012;-7.064;2023-04-26T09:20:25;98337.31;;;26.21;33.63
60240;BME280;46102;39.012;-7.064;2023-04-26T09:22:35;98346.72;;;26.34;33.30
60240;BME280;46102;39.012;-7.064;2023-04-26T09:24:47;98343.03;;;26.14;33.34
60240;BME280;46102;39.012;-7.064;2023-04-26T09:27:00;98349.16;;;26.32;34.10
60240;BME280;46102;39.012;-7.064;2023-04-26T09:29:17;98339.72;;;26.43;34.47
60240;BME280;46102;39.012;-7.064;2023-04-26T09:31:42;98347.00;;;26.40;33.70
60240;BME280;46102;39.012;-7.064;2023-04-26T09:33:59;98347.09;;;26.60;34.01
60240;BME280;46102;39.012;-7.064;2023-04-26T09:36:12;98350.75;;;26.77;33.52
60240;BME280;46102;39.012;-7.064;2023-04-26T09:38:15;98361.56;;;26.58;32.89
60240;BME280;46102;39.012;-7.064;2023-04-26T09:40:20;98358.94;;;26.71;32.36
60240;BME280;46102;39.012;-7.064;2023-04-26T09:42:21;98354.97;;;26.89;32.16
60240;BME280;46102;39.012;-7.064;2023-04-26T09:44:23;98354.84;;;26.96;32.25
60240;BME280;46102;39.012;-7.064;2023-04-26T09:46:24;98352.31;;;27.22;31.73
60240;BME280;46102;39.012;-7.064;2023-04-26T09:48:27;98348.41;;;27.35;31.08
60240;BME280;46102;39.012;-7.064;2023-04-26T09:50:30;98350.63;;;27.44;30.92
60240;BME280;46102;39.012;-7.064;2023-04-26T09:52:41;98351.19;;;27.55;31.41
60240;BME280;46102;39.012;-7.064;2023-04-26T09:54:50;98349.09;;;27.76;30.87
60240;BME280;46102;39.012;-7.064;2023-04-26T09:56:58;98350.41;;;27.91;30.32
60240;BME280;46102;39.012;-7.064;2023-04-26T09:59:00;98340.44;;;28.03;30.69
60240;BME280;46102;39.012;-7.064;2023-04-26T10:01:04;98349.00;;;27.99;29.62
60240;BME280;46102;39.012;-7.064;2023-04-26T10:03:07;98350.31;;;28.11;28.53
60240;BME280;46102;39.012;-7.064;2023-04-26T10:05:08;98345.53;;;28.41;29.43
60240;BME280;46102;39.012;-7.064;2023-04-26T10:07:09;98354.00;;;28.57;28.53
60240;BME280;46102;39.012;-7.064;2023-04-26T10:09:10;98354.59;;;28.65;29.27
60240;BME280;46102;39.012;-7.064;2023-04-26T10:11:12;98353.06;;;28.77;28.94
60240;BME280;46102;39.012;-7.064;2023-04-26T10:13:14;98349.06;;;28.91;28.54
60240;BME280;46102;39.012;-7.064;2023-04-26T10:15:14;98347.94;;;28.88;27.51
60240;BME280;46102;39.012;-7.064;2023-04-26T10:17:17;98358.53;;;28.84;28.21
60240;BME280;46102;39.012;-7.064;2023-04-26T10:19:20;98352.44;;;28.85;27.66
60240;BME280;46102;39.012;-7.064;2023-04-26T10:21:28;98356.19;;;28.95;26.75
60240;BME280;46102;39.012;-7.064;2023-04-26T10:23:31;98352.25;;;29.22;26.05
60240;BME280;46102;39.012;-7.064;2023-04-26T10:25:36;98352.06;;;29.42;27.27
60240;BME280;46102;39.012;-7.064;2023-04-26T10:34:17;98352.75;;;29.46;26.59
60240;BME280;46102;39.012;-7.064;2023-04-26T10:36:18;98357.84;;;29.64;25.98
60240;BME280;46102;39.012;-7.064;2023-04-26T10:38:20;98350.06;;;30.06;25.93
60240;BME280;46102;39.012;-7.064;2023-04-26T10:40:23;98342.50;;;30.51;24.99
60240;BME280;46102;39.012;-7.064;2023-04-26T10:42:27;98346.16;;;30.86;24.09
60240;BME280;46102;39.012;-7.064;2023-04-26T10:44:40;98352.28;;;31.07;23.51
60240;BME280;46102;39.012;-7.064;2023-04-26T10:46:41;98349.13;;;31.27;23.28
60240;BME280;46102;39.012;-7.064;2023-04-26T10:48:42;98347.56;;;31.48;22.80